createdAt,value
2022-08-09T00:12:29.844Z,20.01
2022-08-09T00:27:43.017Z,19.84
2022-08-09T00:44:13.799Z,19.82
2022-08-09T00:58:09.772Z,19.82
2022-08-09T01:13:23.214Z,19.72
2022-08-09T01:28:27.563Z,19.63
2022-08-09T01:43:50.339Z,19.59
2022-08-09T01:58:57.908Z,19.44
2022-08-09T02:14:06.933Z,19.38
2022-08-09T02:29:19.081Z,19.33
2022-08-09T02:44:29.244Z,19.26
2022-08-09T02:59:36.895Z,19.14
2022-08-09T03:14:42.959Z,19.02
2022-08-09T03:29:57.958Z,18.99
2022-08-09T03:45:06.212Z,19.00
2022-08-09T04:00:12.598Z,19.02
2022-08-09T04:15:38.821Z,19.03
2022-08-09T04:30:46.504Z,19.08
2022-08-09T04:45:53.643Z,19.15
2022-08-09T05:00:57.573Z,19.29
2022-08-09T05:16:02.931Z,19.37
2022-08-09T05:31:09.633Z,19.36
2022-08-09T05:46:15.879Z,19.47
2022-08-09T06:01:19.644Z,19.70
2022-08-09T06:16:23.719Z,20.05
2022-08-09T06:31:31.087Z,20.34
2022-08-09T06:46:39.620Z,20.67
2022-08-09T07:01:57.878Z,21.01
2022-08-09T07:17:08.233Z,21.33
2022-08-09T07:32:12.286Z,21.56
2022-08-09T07:47:16.333Z,21.75
2022-08-09T08:02:24.762Z,21.89
2022-08-09T08:17:52.260Z,21.80
2022-08-09T08:32:54.240Z,21.60
2022-08-09T08:47:59.880Z,21.33
2022-08-09T09:03:08.888Z,21.06
2022-08-09T09:18:16.598Z,20.91
2022-08-09T09:33:19.717Z,21.07
2022-08-09T09:48:24.546Z,21.12
2022-08-09T10:03:39.904Z,21.52
2022-08-09T10:18:54.768Z,21.98
2022-08-09T10:34:08.704Z,22.38
2022-08-09T10:49:51.554Z,23.02
2022-08-09T11:05:25.488Z,23.92
2022-08-09T11:20:45.443Z,25.04
2022-08-09T11:35:56.537Z,26.97
2022-08-09T11:51:21.363Z,26.73
2022-08-09T12:06:32.213Z,27.61
2022-08-09T12:21:50.611Z,28.62
2022-08-09T12:36:58.959Z,30.04
2022-08-09T12:52:20.698Z,30.51
2022-08-09T13:08:11.035Z,31.31
2022-08-09T13:24:48.382Z,31.43
2022-08-09T13:38:55.530Z,31.28
2022-08-09T13:54:01.488Z,30.11
2022-08-09T14:09:06.299Z,28.42
2022-08-09T14:24:18.530Z,27.14
2022-08-09T14:39:39.853Z,26.45
2022-08-09T14:54:49.818Z,26.25
2022-08-09T15:10:04.578Z,26.24
2022-08-09T15:25:14.485Z,26.55
2022-08-09T15:40:32.280Z,26.64
2022-08-09T15:56:04.744Z,26.84
2022-08-09T16:11:02.936Z,27.36
2022-08-09T16:26:06.730Z,27.60
2022-08-09T16:41:39.416Z,27.93
2022-08-09T16:56:49.272Z,27.50
2022-08-09T17:11:53.477Z,27.36
2022-08-09T17:26:56.587Z,26.92
2022-08-09T17:42:02.296Z,26.04
2022-08-09T17:57:06.201Z,25.14
2022-08-09T18:12:20.047Z,24.58
2022-08-09T18:28:02.450Z,24.00
2022-08-09T18:42:53.668Z,23.18
2022-08-09T18:58:00.466Z,22.59
2022-08-09T19:13:18.614Z,22.14
2022-08-09T19:28:29.539Z,21.72
2022-08-09T19:44:00.941Z,21.39
2022-08-09T19:59:39.534Z,21.10
2022-08-09T20:14:28.128Z,20.65
2022-08-09T20:29:37.514Z,20.00
2022-08-09T20:44:41.946Z,19.62
2022-08-09T21:00:22.502Z,19.44
2022-08-09T21:15:34.971Z,19.18
2022-08-09T21:30:40.323Z,18.94
2022-08-09T21:45:44.728Z,18.72
2022-08-09T22:00:48.740Z,18.43
2022-08-09T22:15:55.736Z,18.14
2022-08-09T22:30:59.323Z,17.67
2022-08-09T22:48:12.787Z,17.27
2022-08-09T23:01:27.191Z,16.96
2022-08-09T23:16:31.983Z,16.86
2022-08-09T23:31:35.177Z,16.50
2022-08-09T23:46:38.217Z,16.30
